sensor_id;sensor_type;location;lat;lon;timestamp;pressure;altitude;pressure_sealevel;temperature;humidity
72285;BME280;60220;53.552;10.092;2023-04-07T00:01:08;101570.28;;;7.04;47.51
72285;BME280;60220;53.552;10.092;2023-04-07T00:03:37;101573.81;;;7.09;48.46
72285;BME280;60220;53.552;10.092;2023-04-07T00:06:08;101573.13;;;7.20;48.00
72285;BME280;60220;53.552;10.092;2023-04-07T00:08:37;101568.50;;;7.03;47.69
72285;BME280;60220;53.552;10.092;2023-04-07T00:11:04;101569.31;;;6.97;47.97
72285;BME280;60220;53.552;10.092;2023-04-07T00:13:34;101569.31;;;6.97;48.31
72285;BME280;60220;53.552;10.092;2023-04-07T00:16:01;101568.94;;;6.73;48.93
72285;BME280;60220;53.552;10.092;2023-04-07T00:18:31;101569.22;;;6.91;48.20
72285;BME280;60220;53.552;10.092;2023-04-07T00:20:58;101569.63;;;6.63;48.72
72285;BME280;60220;53.552;10.092;2023-04-07T00:23:24;101568.00;;;6.69;48.34
72285;BME280;60220;53.552;10.092;2023-04-07T00:25:51;101567.94;;;6.65;48.50
72285;BME280;60220;53.552;10.092;2023-04-07T00:28:20;101570.91;;;6.35;49.07
72285;BME280;60220;53.552;10.092;2023-04-07T00:30:48;101571.34;;;6.61;49.18
72285;BME280;60220;53.552;10.092;2023-04-07T00:33:14;101572.34;;;6.69;49.01
72285;BME280;60220;53.552;10.092;2023-04-07T00:35:41;101568.28;;;6.33;49.02
72285;BME280;60220;53.552;10.092;2023-04-07T00:38:10;101569.25;;;6.40;49.59
72285;BME280;60220;53.552;10.092;2023-04-07T00:40:39;101570.25;;;6.46;49.87
72285;BME280;60220;53.552;10.092;2023-04-07T00:43:06;101571.13;;;6.48;49.53
72285;BME280;60220;53.552;10.092;2023-04-07T00:45:33;101563.00;;;6.83;49.30
72285;BME280;60220;53.552;10.092;2023-04-07T00:48:01;101565.06;;;6.49;49.76
72285;BME280;60220;53.552;10.092;2023-04-07T00:50:30;101565.84;;;6.42;49.65
72285;BME280;60220;53.552;10.092;2023-04-07T00:52:57;101567.84;;;6.09;49.52
72285;BME280;60220;53.552;10.092;2023-04-07T00:55:26;101556.03;;;6.29;49.54
72285;BME280;60220;53.552;10.092;2023-04-07T00:57:53;101567.59;;;6.99;49.48
72285;BME280;60220;53.552;10.092;2023-04-07T01:00:19;101566.69;;;6.41;48.58
72285;BME280;60220;53.552;10.092;2023-04-07T01:02:50;101562.69;;;6.12;50.34
72285;BME280;60220;53.552;10.092;2023-04-07T01:05:28;101561.22;;;6.26;49.77
72285;BME280;60220;53.552;10.092;2023-04-07T01:08:00;101559.34;;;6.19;50.06
72285;BME280;60220;53.552;10.092;2023-04-07T01:10:34;101567.84;;;6.59;49.53
72285;BME280;60220;53.552;10.092;2023-04-07T01:13:06;101558.44;;;5.74;51.21
72285;BME280;60220;53.552;10.092;2023-04-07T01:15:38;101561.75;;;6.09;49.96
72285;BME280;60220;53.552;10.092;2023-04-07T01:18:08;101555.50;;;6.48;49.38
72285;BME280;60220;53.552;10.092;2023-04-07T01:20:38;101556.19;;;6.38;49.89
72285;BME280;60220;53.552;10.092;2023-04-07T01:23:08;101562.13;;;6.82;49.54
72285;BME280;60220;53.552;10.092;2023-04-07T01:26:03;101560.63;;;6.42;49.72
72285;BME280;60220;53.552;10.092;2023-04-07T01:29:10;101557.50;;;6.14;50.65
72285;BME280;60220;53.552;10.092;2023-04-07T01:31:41;101563.97;;;6.35;49.84
72285;BME280;60220;53.552;10.092;2023-04-07T01:34:11;101566.94;;;6.57;50.12
72285;BME280;60220;53.552;10.092;2023-04-07T01:36:38;101559.88;;;6.49;48.96
72285;BME280;60220;53.552;10.092;2023-04-07T01:39:10;101557.47;;;6.62;49.16
72285;BME280;60220;53.552;10.092;2023-04-07T01:41:40;101558.75;;;6.35;48.96
72285;BME280;60220;53.552;10.092;2023-04-07T01:44:10;101563.66;;;6.70;49.05
72285;BME280;60220;53.552;10.092;2023-04-07T01:46:37;101565.59;;;6.83;49.08
72285;BME280;60220;53.552;10.092;2023-04-07T01:49:06;101563.47;;;6.58;49.16
72285;BME280;60220;53.552;10.092;2023-04-07T01:51:33;101570.91;;;6.35;49.42
72285;BME280;60220;53.552;10.092;2023-04-07T01:54:01;101568.53;;;6.48;49.08
72285;BME280;60220;53.552;10.092;2023-04-07T01:56:29;101559.50;;;6.28;49.55
72285;BME280;60220;53.552;10.092;2023-04-07T01:58:56;101565.19;;;6.06;50.60
72285;BME280;60220;53.552;10.092;2023-04-07T02:01:22;101568.78;;;6.13;50.38
72285;BME280;60220;53.552;10.092;2023-04-07T02:03:56;101558.97;;;6.47;49.18
72285;BME280;60220;53.552;10.092;2023-04-07T02:06:33;101562.91;;;6.24;50.18
72285;BME280;60220;53.552;10.092;2023-04-07T02:09:04;101564.09;;;5.95;50.82
72285;BME280;60220;53.552;10.092;2023-04-07T02:11:34;101567.50;;;5.91;50.94
72285;BME280;60220;53.552;10.092;2023-04-07T02:14:03;101561.75;;;6.09;50.34
72285;BME280;60220;53.552;10.092;2023-04-07T02:16:31;101567.69;;;6.00;49.93
72285;BME280;60220;53.552;10.092;2023-04-07T02:19:01;101574.47;;;6.40;49.10
72285;BME280;60220;53.552;10.092;2023-04-07T02:21:28;101569.47;;;6.02;50.85
72285;BME280;60220;53.552;10.092;2023-04-07T02:24:01;101569.56;;;6.07;50.85
72285;BME280;60220;53.552;10.092;2023-04-07T02:26:32;101568.31;;;6.35;49.98
72285;BME280;60220;53.552;10.092;2023-04-07T02:28:59;101579.19;;;5.68;50.82
72285;BME280;60220;53.552;10.092;2023-04-07T02:31:25;101571.69;;;6.29;50.47
72285;BME280;60220;53.552;10.092;2023-04-07T02:33:52;101568.94;;;5.77;50.67
72285;BME280;60220;53.552;10.092;2023-04-07T02:36:19;101581.03;;;5.75;51.22
72285;BME280;60220;53.552;10.092;2023-04-07T02:38:45;101573.59;;;5.91;50.55
72285;BME280;60220;53.552;10.092;2023-04-07T02:41:13;101572.88;;;5.58;51.02
72285;BME280;60220;53.552;10.092;2023-04-07T02:43:40;101573.22;;;6.18;49.26
72285;BME280;60220;53.552;10.092;2023-04-07T02:46:07;101580.13;;;5.71;50.76
72285;BME280;60220;53.552;10.092;2023-04-07T02:48:33;101584.41;;;5.68;50.65
72285;BME280;60220;53.552;10.092;2023-04-07T02:51:00;101583.31;;;5.19;51.83
72285;BME280;60220;53.552;10.092;2023-04-07T02:53:27;101584.56;;;5.77;50.71
72285;BME280;60220;53.552;10.092;2023-04-07T02:55:53;101587.03;;;6.14;49.89
72285;BME280;60220;53.552;10.092;2023-04-07T02:58:21;101585.19;;;5.65;50.33
72285;BME280;60220;53.552;10.092;2023-04-07T03:00:50;101585.38;;;6.16;49.42
72285;BME280;60220;53.552;10.092;2023-04-07T03:03:17;101589.47;;;5.61;50.21
72285;BME280;60220;53.552;10.092;2023-04-07T03:05:46;101578.56;;;5.81;50.54
72285;BME280;60220;53.552;10.092;2023-04-07T03:08:12;101590.50;;;5.29;50.92
72285;BME280;60220;53.552;10.092;2023-04-07T03:10:39;101590.22;;;5.56;50.04
72285;BME280;60220;53.552;10.092;2023-04-07T03:13:06;101592.44;;;5.38;50.70
72285;BME280;60220;53.552;10.092;2023-04-07T03:15:35;101578.22;;;5.64;50.53
72285;BME280;60220;53.552;10.092;2023-04-07T03:18:02;101584.06;;;5.52;49.76
72285;BME280;60220;53.552;10.092;2023-04-07T03:20:31;101588.63;;;5.62;50.40
72285;BME280;60220;53.552;10.092;2023-04-07T03:22:57;101585.09;;;5.60;50.28
72285;BME280;60220;53.552;10.092;2023-04-07T03:25:24;101586.63;;;5.93;50.24
72285;BME280;60220;53.552;10.092;2023-04-07T03:27:51;101602.81;;;5.36;50.79
72285;BME280;60220;53.552;10.092;2023-04-07T03:30:18;101593.69;;;5.16;51.43
72285;BME280;60220;53.552;10.092;2023-04-07T03:32:46;101595.09;;;5.02;51.11
72285;BME280;60220;53.552;10.092;2023-04-07T03:35:13;101593.63;;;5.13;51.02
72285;BME280;60220;53.552;10.092;2023-04-07T03:37:40;101595.84;;;5.35;51.15
72285;BME280;60220;53.552;10.092;2023-04-07T03:40:07;101599.47;;;5.43;50.09
72285;BME280;60220;53.552;10.092;2023-04-07T03:42:34;101599.94;;;5.24;50.76
72285;BME280;60220;53.552;10.092;2023-04-07T03:45:00;101609.00;;;5.04;50.76
72285;BME280;60220;53.552;10.092;2023-04-07T03:47:27;101602.09;;;5.43;50.07
72285;BME280;60220;53.552;10.092;2023-04-07T03:49:55;101608.78;;;4.95;50.78
72285;BME280;60220;53.552;10.092;2023-04-07T03:52:22;101617.69;;;5.04;50.91
72285;BME280;60220;53.552;10.092;2023-04-07T03:54:49;101621.28;;;5.08;50.60
72285;BME280;60220;53.552;10.092;2023-04-07T03:57:16;101617.50;;;5.34;50.26
72285;BME280;60220;53.552;10.092;2023-04-07T03:59:42;101618.41;;;4.97;50.68
72285;BME280;60220;53.552;10.092;2023-04-07T04:02:09;101624.44;;;5.34;51.25
72285;BME280;60220;53.552;10.092;2023-04-07T04:04:37;101619.41;;;5.04;51.14
72285;BME280;60220;53.552;10.092;2023-04-07T04:07:06;101613.63;;;5.54;50.37
72285;BME280;60220;53.552;10.092;2023-04-07T04:09:33;101620.06;;;5.31;50.53
72285;BME280;60220;53.552;10.092;2023-04-07T04:12:00;101616.59;;;4.95;50.07
72285;BME280;60220;53.552;10.092;2023-04-07T04:14:27;101627.84;;;4.94;51.12
72285;BME280;60220;53.552;10.092;2023-04-07T04:16:54;101623.56;;;5.33;50.64
72285;BME280;60220;53.552;10.092;2023-04-07T04:19:20;101625.84;;;5.19;51.19
72285;BME280;60220;53.552;10.092;2023-04-07T04:21:47;101632.66;;;5.13;51.05
72285;BME280;60220;53.552;10.092;2023-04-07T04:24:15;101636.94;;;5.50;49.85
72285;BME280;60220;53.552;10.092;2023-04-07T04:26:41;101631.44;;;4.99;50.80
72285;BME280;60220;53.552;10.092;2023-04-07T04:29:08;101631.31;;;4.93;51.25
72285;BME280;60220;53.552;10.092;2023-04-07T04:31:35;101632.97;;;4.91;51.55
72285;BME280;60220;53.552;10.092;2023-04-07T04:34:02;101635.53;;;4.89;51.53
72285;BME280;60220;53.552;10.092;2023-04-07T04:36:31;101637.63;;;5.41;50.58
72285;BME280;60220;53.552;10.092;2023-04-07T04:39:00;101641.03;;;5.37;50.14
72285;BME280;60220;53.552;10.092;2023-04-07T04:41:31;101639.09;;;5.68;50.54
72285;BME280;60220;53.552;10.092;2023-04-07T04:43:57;101636.63;;;5.75;50.02
72285;BME280;60220;53.552;10.092;2023-04-07T04:46:24;101644.31;;;5.30;50.47
72285;BME280;60220;53.552;10.092;2023-04-07T04:48:51;101649.31;;;5.60;50.36
72285;BME280;60220;53.552;10.092;2023-04-07T04:51:18;101649.72;;;5.38;50.50
72285;BME280;60220;53.552;10.092;2023-04-07T04:53:45;101651.59;;;5.45;50.61
72285;BME280;60220;53.552;10.092;2023-04-07T04:56:14;101650.91;;;5.52;50.97
72285;BME280;60220;53.552;10.092;2023-04-07T04:58:42;101658.31;;;5.35;50.21
72285;BME280;60220;53.552;10.092;2023-04-07T05:01:10;101656.72;;;5.03;51.04
72285;BME280;60220;53.552;10.092;2023-04-07T05:03:37;101660.88;;;5.32;50.40
72285;BME280;60220;53.552;10.092;2023-04-07T05:06:07;101660.13;;;5.78;49.18
72285;BME280;60220;53.552;10.092;2023-04-07T05:08:33;101667.84;;;5.74;50.01
72285;BME280;60220;53.552;10.092;2023-04-07T05:11:00;101660.25;;;5.84;49.34
72285;BME280;60220;53.552;10.092;2023-04-07T05:13:27;101664.78;;;5.15;50.61
72285;BME280;60220;53.552;10.092;2023-04-07T05:15:56;101674.91;;;5.78;49.42
72285;BME280;60220;53.552;10.092;2023-04-07T05:18:25;101668.28;;;5.92;48.47
72285;BME280;60220;53.552;10.092;2023-04-07T05:20:54;101680.22;;;5.82;49.15
72285;BME280;60220;53.552;10.092;2023-04-07T05:23:20;101681.69;;;5.71;49.26
72285;BME280;60220;53.552;10.092;2023-04-07T05:25:49;101680.91;;;5.75;49.66
72285;BME280;60220;53.552;10.092;2023-04-07T05:28:16;101682.72;;;5.79;49.32
72285;BME280;60220;53.552;10.092;2023-04-07T05:30:43;101685.59;;;5.51;49.01
72285;BME280;60220;53.552;10.092;2023-04-07T05:33:11;101693.25;;;5.82;49.36
72285;BME280;60220;53.552;10.092;2023-04-07T05:35:38;101684.34;;;6.13;48.96
72285;BME280;60220;53.552;10.092;2023-04-07T05:38:05;101692.50;;;5.88;49.58
72285;BME280;60220;53.552;10.092;2023-04-07T05:40:31;101690.09;;;6.40;47.91
72285;BME280;60220;53.552;10.092;2023-04-07T05:42:58;101695.03;;;6.25;48.14
72285;BME280;60220;53.552;10.092;2023-04-07T05:45:25;101693.44;;;6.33;47.84
72285;BME280;60220;53.552;10.092;2023-04-07T05:47:51;101695.22;;;5.92;48.87
72285;BME280;60220;53.552;10.092;2023-04-07T05:50:20;101694.59;;;6.47;48.27
72285;BME280;60220;53.552;10.092;2023-04-07T05:52:46;101702.97;;;6.33;47.71
72285;BME280;60220;53.552;10.092;2023-04-07T05:55:13;101707.47;;;6.40;48.10
72285;BME280;60220;53.552;10.092;2023-04-07T05:57:42;101721.13;;;5.49;49.51
72285;BME280;60220;53.552;10.092;2023-04-07T06:00:09;101718.84;;;5.62;49.10
72285;BME280;60220;53.552;10.092;2023-04-07T06:02:37;101729.91;;;5.90;49.12
72285;BME280;60220;53.552;10.092;2023-04-07T06:05:04;101729.44;;;6.09;49.19
72285;BME280;60220;53.552;10.092;2023-04-07T06:07:32;101726.59;;;5.97;49.27
72285;BME280;60220;53.552;10.092;2023-04-07T06:09:59;101722.84;;;6.26;47.94
72285;BME280;60220;53.552;10.092;2023-04-07T06:12:26;101724.66;;;6.30;48.10
72285;BME280;60220;53.552;10.092;2023-04-07T06:14:54;101727.25;;;6.74;47.70
72285;BME280;60220;53.552;10.092;2023-04-07T06:17:21;101733.47;;;6.80;46.64
72285;BME280;60220;53.552;10.092;2023-04-07T06:19:48;101729.03;;;6.76;46.77
72285;BME280;60220;53.552;10.092;2023-04-07T06:22:14;101743.44;;;6.56;47.59
72285;BME280;60220;53.552;10.092;2023-04-07T06:24:42;101736.59;;;7.11;46.13
72285;BME280;60220;53.552;10.092;2023-04-07T06:27:09;101741.53;;;6.94;47.04
72285;BME280;60220;53.552;10.092;2023-04-07T06:29:35;101740.06;;;6.62;46.35
72285;BME280;60220;53.552;10.092;2023-04-07T06:32:02;101738.69;;;6.80;46.69
72285;BME280;60220;53.552;10.092;2023-04-07T06:34:29;101753.53;;;6.84;46.34
72285;BME280;60220;53.552;10.092;2023-04-07T06:36:56;101745.75;;;6.87;46.68
72285;BME280;60220;53.552;10.092;2023-04-07T06:39:24;101743.75;;;7.22;45.69
72285;BME280;60220;53.552;10.092;2023-04-07T06:41:52;101753.13;;;7.10;46.14
72285;BME280;60220;53.552;10.092;2023-04-07T06:44:21;101754.91;;;7.68;44.84
72285;BME280;60220;53.552;10.092;2023-04-07T06:46:48;101757.94;;;7.37;44.98
72285;BME280;60220;53.552;10.092;2023-04-07T06:49:17;101758.88;;;7.43;44.92
72285;BME280;60220;53.552;10.092;2023-04-07T06:51:46;101763.38;;;8.12;45.09
72285;BME280;60220;53.552;10.092;2023-04-07T06:54:13;101767.88;;;8.20;43.68
72285;BME280;60220;53.552;10.092;2023-04-07T06:56:40;101764.88;;;7.93;45.22
72285;BME280;60220;53.552;10.092;2023-04-07T06:59:08;101762.72;;;7.65;44.82
72285;BME280;60220;53.552;10.092;2023-04-07T07:01:35;101761.13;;;7.74;43.90
72285;BME280;60220;53.552;10.092;2023-04-07T07:04:01;101770.19;;;7.99;43.66
72285;BME280;60220;53.552;10.092;2023-04-07T07:06:30;101764.19;;;8.08;43.77
72285;BME280;60220;53.552;10.092;2023-04-07T07:08:57;101771.97;;;8.68;42.96
72285;BME280;60220;53.552;10.092;2023-04-07T07:11:26;101772.72;;;7.93;42.93
72285;BME280;60220;53.552;10.092;2023-04-07T07:13:52;101767.19;;;9.17;40.52
72285;BME280;60220;53.552;10.092;2023-04-07T07:16:20;101769.03;;;8.42;42.09
72285;BME280;60220;53.552;10.092;2023-04-07T07:18:48;101771.19;;;8.09;42.72
72285;BME280;60220;53.552;10.092;2023-04-07T07:21:16;101765.47;;;9.16;40.97
72285;BME280;60220;53.552;10.092;2023-04-07T07:23:43;101768.00;;;8.30;41.10
72285;BME280;60220;53.552;10.092;2023-04-07T07:26:10;101770.16;;;8.64;40.68
72285;BME280;60220;53.552;10.092;2023-04-07T07:28:36;101772.88;;;9.65;40.63
72285;BME280;60220;53.552;10.092;2023-04-07T07:31:08;101768.09;;;10.56;38.00
72285;BME280;60220;53.552;10.092;2023-04-07T07:33:38;101779.25;;;10.10;39.25
72285;BME280;60220;53.552;10.092;2023-04-07T07:36:06;101776.78;;;10.31;38.64
72285;BME280;60220;53.552;10.092;2023-04-07T07:38:32;101784.78;;;10.60;37.25
72285;BME280;60220;53.552;10.092;2023-04-07T07:40:59;101783.88;;;10.50;36.90
72285;BME280;60220;53.552;10.092;2023-04-07T07:43:26;101782.22;;;10.89;36.80
72285;BME280;60220;53.552;10.092;2023-04-07T07:45:55;101785.31;;;10.00;37.90
72285;BME280;60220;53.552;10.092;2023-04-07T07:48:21;101788.31;;;10.78;37.63
72285;BME280;60220;53.552;10.092;2023-04-07T07:50:50;101792.53;;;10.37;37.50
72285;BME280;60220;53.552;10.092;2023-04-07T07:53:17;101793.63;;;10.98;36.53
72285;BME280;60220;53.552;10.092;2023-04-07T07:55:44;101797.16;;;11.23;36.62
72285;BME280;60220;53.552;10.092;2023-04-07T07:58:13;101799.50;;;10.29;36.90
72285;BME280;60220;53.552;10.092;2023-04-07T08:00:40;101796.13;;;10.54;37.17
72285;BME280;60220;53.552;10.092;2023-04-07T08:03:07;101796.25;;;10.91;36.79
72285;BME280;60220;53.552;10.092;2023-04-07T08:05:33;101797.16;;;11.09;36.73
72285;BME280;60220;53.552;10.092;2023-04-07T08:08:04;101804.88;;;10.53;37.20
72285;BME280;60220;53.552;10.092;2023-04-07T08:10:33;101798.84;;;12.26;34.78
72285;BME280;60220;53.552;10.092;2023-04-07T08:13:00;101806.81;;;11.42;36.00
72285;BME280;60220;53.552;10.092;2023-04-07T08:15:26;101805.97;;;11.80;34.35
72285;BME280;60220;53.552;10.092;2023-04-07T08:17:53;101808.59;;;11.40;35.27
72285;BME280;60220;53.552;10.092;2023-04-07T08:20:23;101815.09;;;10.05;36.93
72285;BME280;60220;53.552;10.092;2023-04-07T08:22:49;101807.53;;;10.67;35.97
72285;BME280;60220;53.552;10.092;2023-04-07T08:25:18;101803.25;;;10.95;36.31
72285;BME280;60220;53.552;10.092;2023-04-07T08:27:45;101816.34;;;10.87;35.96
72285;BME280;60220;53.552;10.092;2023-04-07T08:30:12;101816.25;;;10.51;36.44
72285;BME280;60220;53.552;10.092;2023-04-07T08:32:40;101810.31;;;11.23;35.86
72285;BME280;60220;53.552;10.092;2023-04-07T08:35:07;101822.59;;;11.70;34.81
72285;BME280;60220;53.552;10.092;2023-04-07T08:37:35;101822.50;;;10.97;35.67
72285;BME280;60220;53.552;10.092;2023-04-07T08:40:02;101818.03;;;10.61;36.12
72285;BME280;60220;53.552;10.092;2023-04-07T08:42:33;101827.59;;;10.51;35.96
72285;BME280;60220;53.552;10.092;2023-04-07T08:45:02;101824.34;;;11.58;34.74
72285;BME280;60220;53.552;10.092;2023-04-07T08:47:30;101811.88;;;12.70;33.86
72285;BME280;60220;53.552;10.092;2023-04-07T08:50:00;101817.31;;;11.09;34.77
72285;BME280;60220;53.552;10.092;2023-04-07T08:52:33;101820.84;;;11.29;34.60
72285;BME280;60220;53.552;10.092;2023-04-07T08:55:00;101812.06;;;11.42;34.71
72285;BME280;60220;53.552;10.092;2023-04-07T08:57:35;101815.59;;;12.10;33.40
72285;BME280;60220;53.552;10.092;2023-04-07T09:00:03;101814.66;;;12.23;33.10
72285;BME280;60220;53.552;10.092;2023-04-07T09:02:32;101816.47;;;11.40;34.38
72285;BME280;60220;53.552;10.092;2023-04-07T09:04:59;101811.19;;;11.28;34.62
72285;BME280;60220;53.552;10.092;2023-04-07T09:07:30;101819.03;;;12.22;33.01
72285;BME280;60220;53.552;10.092;2023-04-07T09:09:57;101817.31;;;12.09;33.71
72285;BME280;60220;53.552;10.092;2023-04-07T09:12:23;101810.34;;;11.59;34.42
72285;BME280;60220;53.552;10.092;2023-04-07T09:14:53;101815.59;;;11.35;34.84
72285;BME280;60220;53.552;10.092;2023-04-07T09:17:24;101820.00;;;11.94;33.14
72285;BME280;60220;53.552;10.092;2023-04-07T09:19:51;101823.34;;;12.54;33.05
72285;BME280;60220;53.552;10.092;2023-04-07T09:22:33;101820.00;;;11.79;33.43
72285;BME280;60220;53.552;10.092;2023-04-07T09:25:09;101821.59;;;12.40;33.07
72285;BME280;60220;53.552;10.092;2023-04-07T09:27:35;101814.53;;;12.58;32.13
72285;BME280;60220;53.552;10.092;2023-04-07T09:30:11;101821.66;;;12.33;32.63
72285;BME280;60220;53.552;10.092;2023-04-07T09:32:39;101812.91;;;12.16;32.91
72285;BME280;60220;53.552;10.092;2023-04-07T09:35:07;101828.56;;;12.61;33.34
72285;BME280;60220;53.552;10.092;2023-04-07T09:37:34;101809.56;;;13.57;30.82
72285;BME280;60220;53.552;10.092;2023-04-07T09:40:00;101806.63;;;14.68;29.44
72285;BME280;60220;53.552;10.092;2023-04-07T09:42:27;101804.72;;;12.87;31.80
72285;BME280;60220;53.552;10.092;2023-04-07T09:44:57;101804.72;;;12.90;31.36
72285;BME280;60220;53.552;10.092;2023-04-07T09:47:29;101809.03;;;13.02;31.27
72285;BME280;60220;53.552;10.092;2023-04-07T09:49:57;101812.94;;;12.13;32.82
72285;BME280;60220;53.552;10.092;2023-04-07T09:52:46;101799.78;;;12.08;32.30
72285;BME280;60220;53.552;10.092;2023-04-07T09:55:12;101810.72;;;13.19;31.00
72285;BME280;60220;53.552;10.092;2023-04-07T09:57:41;101794.41;;;12.41;31.96
72285;BME280;60220;53.552;10.092;2023-04-07T10:00:10;101803.34;;;11.77;33.22
72285;BME280;60220;53.552;10.092;2023-04-07T10:02:38;101812.00;;;12.27;32.10
72285;BME280;60220;53.552;10.092;2023-04-07T10:05:06;101808.56;;;11.37;33.71
72285;BME280;60220;53.552;10.092;2023-04-07T10:07:34;101805.94;;;11.68;32.94
72285;BME280;60220;53.552;10.092;2023-04-07T10:10:01;101810.31;;;11.72;32.52
72285;BME280;60220;53.552;10.092;2023-04-07T10:12:32;101805.81;;;12.42;33.72
72285;BME280;60220;53.552;10.092;2023-04-07T10:14:59;101807.63;;;12.16;32.57
72285;BME280;60220;53.552;10.092;2023-04-07T10:17:27;101815.63;;;11.84;32.45
72285;BME280;60220;53.552;10.092;2023-04-07T10:19:57;101819.00;;;12.37;30.90
72285;BME280;60220;53.552;10.092;2023-04-07T10:22:25;101819.59;;;12.95;31.47
72285;BME280;60220;53.552;10.092;2023-04-07T10:24:56;101816.41;;;12.16;32.45
72285;BME280;60220;53.552;10.092;2023-04-07T10:27:30;101813.75;;;12.31;31.48
72285;BME280;60220;53.552;10.092;2023-04-07T10:29:57;101809.03;;;13.02;31.23
72285;BME280;60220;53.552;10.092;2023-04-07T10:32:25;101818.06;;;12.52;32.72
72285;BME280;60220;53.552;10.092;2023-04-07T10:34:59;101820.88;;;11.75;33.86
72285;BME280;60220;53.552;10.092;2023-04-07T10:37:28;101819.06;;;11.28;31.91
72285;BME280;60220;53.552;10.092;2023-04-07T10:40:31;101812.91;;;11.03;32.48
72285;BME280;60220;53.552;10.092;2023-04-07T10:42:57;101826.13;;;11.93;32.12
72285;BME280;60220;53.552;10.092;2023-04-07T10:45:51;101811.13;;;10.95;33.16
72285;BME280;60220;53.552;10.092;2023-04-07T10:48:19;101820.00;;;11.79;33.16
72285;BME280;60220;53.552;10.092;2023-04-07T10:51:11;101814.59;;;12.44;31.62
72285;BME280;60220;53.552;10.092;2023-04-07T10:57:10;101816.41;;;12.16;32.20
72285;BME280;60220;53.552;10.092;2023-04-07T10:59:39;101817.31;;;12.06;31.46
72285;BME280;60220;53.552;10.092;2023-04-07T11:02:30;101813.81;;;11.61;31.88
72285;BME280;60220;53.552;10.092;2023-04-07T11:04:57;101812.97;;;11.87;32.57
72285;BME280;60220;53.552;10.092;2023-04-07T11:07:46;101820.63;;;12.66;33.10
72285;BME280;60220;53.552;10.092;2023-04-07T11:10:14;101818.19;;;12.08;34.00
72285;BME280;60220;53.552;10.092;2023-04-07T11:12:43;101812.78;;;12.58;34.14
72285;BME280;60220;53.552;10.092;2023-04-07T11:15:17;101817.41;;;13.64;31.88
72285;BME280;60220;53.552;10.092;2023-04-07T11:17:44;101804.09;;;13.78;31.64
72285;BME280;60220;53.552;10.092;2023-04-07T11:20:11;101813.75;;;12.28;33.74
72285;BME280;60220;53.552;10.092;2023-04-07T11:22:38;101813.84;;;11.89;34.87
72285;BME280;60220;53.552;10.092;2023-04-07T11:25:21;101804.47;;;13.32;33.08
72285;BME280;60220;53.552;10.092;2023-04-07T11:27:52;101806.03;;;13.58;32.43
72285;BME280;60220;53.552;10.092;2023-04-07T11:30:19;101807.25;;;13.13;33.23
72285;BME280;60220;53.552;10.092;2023-04-07T11:32:47;101806.72;;;12.39;33.66
72285;BME280;60220;53.552;10.092;2023-04-07T11:35:15;101805.81;;;12.40;33.94
72285;BME280;60220;53.552;10.092;2023-04-07T11:37:42;101807.69;;;11.91;34.00
72285;BME280;60220;53.552;10.092;2023-04-07T11:40:10;101808.56;;;11.86;34.97
72285;BME280;60220;53.552;10.092;2023-04-07T11:42:40;101810.19;;;12.47;34.61
72285;BME280;60220;53.552;10.092;2023-04-07T11:45:17;101823.41;;;12.31;33.50
72285;BME280;60220;53.552;10.092;2023-04-07T11:47:45;101825.16;;;12.38;33.00
72285;BME280;60220;53.552;10.092;2023-04-07T11:50:12;101823.50;;;11.99;33.26
72285;BME280;60220;53.552;10.092;2023-04-07T11:52:40;101820.84;;;12.08;33.11
72285;BME280;60220;53.552;10.092;2023-04-07T11:55:16;101823.44;;;12.23;32.67
72285;BME280;60220;53.552;10.092;2023-04-07T11:57:44;101822.50;;;12.42;32.56
72285;BME280;60220;53.552;10.092;2023-04-07T12:00:12;101816.28;;;12.63;32.18
72285;BME280;60220;53.552;10.092;2023-04-07T12:02:40;101829.53;;;12.37;33.00
72285;BME280;60220;53.552;10.092;2023-04-07T12:05:09;101821.69;;;12.12;33.46
72285;BME280;60220;53.552;10.092;2023-04-07T12:07:35;101826.94;;;12.30;33.14
72285;BME280;60220;53.552;10.092;2023-04-07T12:10:18;101830.47;;;12.06;33.81
72285;BME280;60220;53.552;10.092;2023-04-07T12:12:46;101816.19;;;12.83;33.17
72285;BME280;60220;53.552;10.092;2023-04-07T12:15:13;101823.34;;;12.54;33.41
72285;BME280;60220;53.552;10.092;2023-04-07T12:17:44;101820.44;;;13.08;33.12
72285;BME280;60220;53.552;10.092;2023-04-07T12:20:11;101822.19;;;13.14;32.86
72285;BME280;60220;53.552;10.092;2023-04-07T12:22:38;101825.19;;;12.23;33.47
72285;BME280;60220;53.552;10.092;2023-04-07T12:25:05;101829.41;;;12.74;33.34
72285;BME280;60220;53.552;10.092;2023-04-07T12:27:32;101823.44;;;12.17;33.90
72285;BME280;60220;53.552;10.092;2023-04-07T12:30:00;101825.16;;;12.27;34.01
72285;BME280;60220;53.552;10.092;2023-04-07T12:32:27;101832.09;;;12.65;33.58
72285;BME280;60220;53.552;10.092;2023-04-07T12:34:54;101831.09;;;12.87;33.48
72285;BME280;60220;53.552;10.092;2023-04-07T12:37:21;101823.22;;;12.79;33.49
72285;BME280;60220;53.552;10.092;2023-04-07T12:39:47;101831.28;;;12.44;33.93
72285;BME280;60220;53.552;10.092;2023-04-07T12:42:14;101835.66;;;12.48;34.86
72285;BME280;60220;53.552;10.092;2023-04-07T12:44:40;101835.75;;;11.98;34.05
72285;BME280;60220;53.552;10.092;2023-04-07T12:47:11;101835.75;;;12.03;33.82
72285;BME280;60220;53.552;10.092;2023-04-07T12:49:37;101834.88;;;11.68;34.24
72285;BME280;60220;53.552;10.092;2023-04-07T12:52:04;101833.13;;;11.59;35.36
72285;BME280;60220;53.552;10.092;2023-04-07T12:54:31;101836.53;;;12.35;35.31
72285;BME280;60220;53.552;10.092;2023-04-07T12:56:58;101834.88;;;11.92;34.99